createdAt,value
2022-09-10T00:00:35.468Z,63.59
2022-09-10T00:02:02.230Z,63.27
2022-09-10T00:03:09.213Z,62.90
2022-09-10T00:04:16.187Z,62.48
2022-09-10T00:05:23.335Z,62.34
2022-09-10T00:06:30.210Z,62.07
2022-09-10T00:07:37.311Z,61.91
2022-09-10T00:08:44.079Z,60.54
2022-09-10T00:09:50.892Z,60.92
2022-09-10T00:10:58.761Z,61.18
2022-09-10T00:12:06.116Z,61.14
2022-09-10T00:13:12.477Z,60.38
2022-09-10T00:14:22.815Z,60.87
2022-09-10T00:15:28.583Z,62.11
2022-09-10T00:16:34.597Z,61.68
2022-09-10T00:17:40.968Z,61.16
2022-09-10T00:18:47.133Z,60.86
2022-09-10T00:19:53.312Z,60.80
2022-09-10T00:20:59.474Z,60.81
2022-09-10T00:22:05.301Z,60.72
2022-09-10T00:23:10.992Z,60.06
2022-09-10T00:24:17.263Z,60.73
2022-09-10T00:25:23.539Z,60.38
2022-09-10T00:26:36.380Z,58.82
2022-09-10T00:27:42.673Z,58.34
2022-09-10T00:28:48.744Z,58.96
2022-09-10T00:29:55.347Z,59.03
2022-09-10T00:31:01.424Z,59.63
2022-09-10T00:32:07.677Z,60.17
2022-09-10T00:33:13.940Z,60.25
2022-09-10T00:34:20.492Z,61.34
2022-09-10T00:35:26.391Z,62.53
2022-09-10T00:36:34.127Z,62.91
2022-09-10T00:37:40.038Z,64.00
2022-09-10T00:38:46.483Z,65.25
2022-09-10T00:39:52.215Z,64.46
2022-09-10T00:41:05.182Z,64.97
2022-09-10T00:42:12.175Z,63.67
2022-09-10T00:43:20.910Z,64.65
2022-09-10T00:44:42.213Z,65.39
2022-09-10T00:45:56.892Z,66.78
2022-09-10T00:47:02.916Z,66.61
2022-09-10T00:48:17.654Z,67.49
2022-09-10T00:49:37.280Z,68.50
2022-09-10T00:50:44.351Z,68.94
2022-09-10T00:51:52.931Z,70.31
2022-09-10T00:53:04.042Z,71.69
2022-09-10T00:54:10.228Z,71.11
2022-09-10T00:55:17.866Z,71.01
2022-09-10T00:56:25.387Z,71.55
2022-09-10T00:57:31.471Z,71.44
2022-09-10T00:58:38.213Z,71.25
2022-09-10T00:59:47.494Z,71.63
2022-09-10T01:00:59.891Z,72.60
2022-09-10T01:02:06.134Z,73.47
2022-09-10T01:03:12.716Z,74.55
2022-09-10T01:04:19.117Z,75.02
2022-09-10T01:05:25.323Z,76.62
2022-09-10T01:06:32.155Z,76.75
2022-09-10T01:07:38.791Z,77.18
2022-09-10T01:08:45.959Z,77.98
2022-09-10T01:09:53.807Z,78.42
2022-09-10T01:11:34.654Z,78.60
2022-09-10T01:12:47.793Z,79.42
2022-09-10T01:14:06.064Z,80.26
2022-09-10T01:15:30.503Z,80.74
2022-09-10T01:17:13.501Z,80.91
2022-09-10T01:18:33.360Z,82.15
2022-09-10T01:19:58.821Z,81.34
2022-09-10T01:21:12.198Z,82.24
2022-09-10T01:22:47.713Z,82.94
2022-09-10T01:24:22.954Z,84.01
2022-09-10T01:26:07.868Z,85.10
2022-09-10T01:27:29.570Z,85.38
2022-09-10T01:28:41.193Z,85.44
2022-09-10T01:29:51.172Z,85.67
2022-09-10T01:31:01.589Z,86.17
2022-09-10T01:32:14.097Z,86.38
2022-09-10T01:33:44.107Z,86.14
2022-09-10T01:35:03.721Z,85.74
2022-09-10T01:36:13.499Z,85.84
2022-09-10T01:37:22.947Z,86.28
2022-09-10T01:38:32.565Z,86.47
2022-09-10T01:39:40.349Z,86.09
2022-09-10T01:40:47.365Z,85.83
2022-09-10T01:41:57.998Z,85.61
2022-09-10T01:43:11.744Z,85.76
2022-09-10T01:44:50.374Z,85.83
2022-09-10T01:46:32.356Z,86.82
2022-09-10T01:48:02.267Z,87.84
2022-09-10T01:49:36.021Z,88.25
2022-09-10T01:51:01.641Z,87.72
2022-09-10T01:52:26.419Z,88.80
2022-09-10T01:53:47.207Z,89.74
2022-09-10T01:55:07.962Z,90.38
2022-09-10T01:56:36.639Z,90.59
2022-09-10T01:57:50.026Z,90.40
2022-09-10T01:58:59.024Z,90.42
2022-09-10T02:00:15.776Z,89.43
2022-09-10T02:01:53.283Z,89.09
2022-09-10T02:03:11.992Z,89.38
2022-09-10T02:04:18.575Z,89.52
2022-09-10T02:05:25.003Z,88.63
2022-09-10T02:06:37.147Z,86.44
2022-09-10T02:07:45.105Z,86.06
2022-09-10T02:08:54.386Z,86.37
2022-09-10T02:10:03.294Z,85.73
2022-09-10T02:11:15.264Z,84.64
2022-09-10T02:12:27.839Z,84.10
2022-09-10T02:13:51.730Z,85.78
2022-09-10T02:15:06.558Z,84.64
2022-09-10T02:16:36.081Z,83.26
2022-09-10T02:17:42.662Z,82.71
2022-09-10T02:18:50.316Z,83.26
2022-09-10T02:19:57.333Z,83.62
2022-09-10T02:21:05.150Z,83.52
2022-09-10T02:22:11.834Z,84.16
2022-09-10T02:23:19.452Z,85.21
2022-09-10T02:24:26.191Z,86.22
2022-09-10T02:25:34.231Z,86.71
2022-09-10T02:26:44.854Z,87.20
2022-09-10T02:27:51.466Z,87.79
2022-09-10T02:28:59.253Z,88.79
2022-09-10T02:30:07.674Z,89.41
2022-09-10T02:31:14.143Z,90.38
2022-09-10T02:32:21.329Z,91.06
2022-09-10T02:33:27.140Z,90.27
2022-09-10T02:34:33.342Z,90.11
2022-09-10T02:35:40.060Z,90.35
2022-09-10T02:36:46.632Z,90.75
2022-09-10T02:37:54.425Z,90.60
2022-09-10T02:39:04.356Z,90.69
2022-09-10T02:40:11.726Z,90.91
2022-09-10T02:41:18.983Z,90.40
2022-09-10T02:42:26.329Z,90.91
2022-09-10T02:43:38.976Z,91.32
2022-09-10T02:44:46.066Z,91.28
2022-09-10T02:45:52.614Z,91.07
2022-09-10T02:46:59.504Z,91.56
2022-09-10T02:48:06.655Z,91.77
2022-09-10T02:49:12.727Z,91.51
2022-09-10T02:50:20.494Z,91.40
2022-09-10T02:51:29.700Z,91.31
2022-09-10T02:52:36.480Z,91.25
2022-09-10T02:53:43.990Z,91.41
2022-09-10T02:54:52.993Z,90.58
2022-09-10T02:56:00.286Z,90.03
2022-09-10T02:57:06.922Z,90.39
2022-09-10T02:58:14.274Z,90.78
2022-09-10T02:59:21.751Z,91.38
2022-09-10T03:00:28.883Z,91.76
2022-09-10T03:01:35.533Z,91.52
2022-09-10T03:02:43.830Z,91.69
2022-09-10T03:03:56.359Z,92.67
2022-09-10T03:05:05.786Z,93.00
2022-09-10T03:06:15.197Z,92.86
2022-09-10T03:07:22.117Z,93.28
2022-09-10T03:08:28.965Z,94.13
2022-09-10T03:09:36.265Z,94.93
2022-09-10T03:10:43.603Z,95.84
2022-09-10T03:11:51.529Z,96.46
2022-09-10T03:12:59.038Z,97.19
2022-09-10T03:14:05.580Z,97.71
2022-09-10T03:15:12.289Z,97.69
2022-09-10T03:16:19.217Z,97.82
2022-09-10T03:17:26.514Z,97.85
2022-09-10T03:18:36.574Z,97.51
2022-09-10T03:19:43.420Z,97.68
2022-09-10T03:20:50.560Z,98.34
2022-09-10T03:21:57.309Z,99.05
2022-09-10T03:23:06.456Z,99.72
2022-09-10T03:24:15.256Z,100.00
2022-09-10T03:25:23.995Z,100.00
2022-09-10T03:26:37.100Z,100.00
2022-09-10T03:27:43.970Z,100.00
2022-09-10T03:28:51.686Z,100.00
2022-09-10T03:29:59.272Z,100.00
2022-09-10T03:31:07.201Z,100.00
2022-09-10T03:32:17.875Z,100.00
2022-09-10T03:33:24.777Z,100.00
2022-09-10T03:34:33.616Z,100.00
2022-09-10T03:35:40.486Z,100.00
2022-09-10T03:36:50.492Z,100.00
2022-09-10T03:37:57.086Z,100.00
2022-09-10T03:39:04.383Z,100.00
2022-09-10T03:40:11.545Z,100.00
2022-09-10T03:41:18.330Z,100.00
2022-09-10T03:42:25.824Z,100.00
2022-09-10T03:43:31.851Z,100.00
2022-09-10T03:44:38.623Z,100.00
2022-09-10T03:45:46.177Z,100.00
2022-09-10T03:46:52.727Z,100.00
2022-09-10T03:48:00.251Z,100.00
2022-09-10T03:49:07.733Z,100.00
2022-09-10T03:50:14.109Z,100.00
2022-09-10T03:51:21.617Z,100.00
2022-09-10T03:52:30.866Z,100.00
2022-09-10T03:53:39.250Z,100.00
2022-09-10T03:54:51.424Z,100.00
2022-09-10T03:55:59.552Z,100.00
2022-09-10T03:57:07.207Z,100.00
2022-09-10T03:58:13.949Z,100.00
2022-09-10T03:59:20.980Z,100.00
2022-09-10T04:00:27.816Z,100.00
2022-09-10T04:01:33.655Z,100.00
2022-09-10T04:02:42.521Z,100.00
2022-09-10T04:03:49.353Z,100.00
2022-09-10T04:04:56.644Z,100.00
2022-09-10T04:06:03.600Z,100.00
2022-09-10T04:07:10.908Z,100.00
2022-09-10T04:08:17.231Z,100.00
2022-09-10T04:09:25.609Z,100.00
2022-09-10T04:10:32.271Z,100.00
2022-09-10T04:11:39.127Z,100.00
2022-09-10T04:12:46.386Z,100.00
2022-09-10T04:13:54.120Z,100.00
2022-09-10T04:15:02.526Z,100.00
2022-09-10T04:16:09.044Z,100.00
2022-09-10T04:17:15.133Z,100.00
2022-09-10T04:18:23.472Z,100.00
2022-09-10T04:19:29.725Z,100.00
2022-09-10T04:20:37.674Z,100.00
2022-09-10T04:21:49.005Z,100.00
2022-09-10T04:22:57.491Z,100.00
2022-09-10T04:24:05.432Z,100.00
2022-09-10T04:25:11.734Z,100.00
2022-09-10T04:26:21.066Z,100.00
2022-09-10T04:27:29.465Z,100.00
2022-09-10T04:28:36.447Z,100.00
2022-09-10T04:29:44.246Z,100.00
2022-09-10T04:30:52.228Z,100.00
2022-09-10T04:32:01.580Z,100.00
2022-09-10T04:33:11.352Z,100.00
2022-09-10T04:34:21.410Z,100.00
2022-09-10T04:35:28.752Z,100.00
2022-09-10T04:36:35.743Z,100.00
2022-09-10T04:37:44.346Z,100.00
2022-09-10T04:38:50.966Z,100.00
2022-09-10T04:39:57.281Z,100.00
2022-09-10T04:41:05.939Z,100.00
2022-09-10T04:42:14.835Z,100.00
2022-09-10T04:43:22.602Z,100.00
2022-09-10T04:44:31.106Z,100.00
2022-09-10T04:45:40.235Z,100.00
2022-09-10T04:46:46.032Z,100.00
2022-09-10T04:47:54.494Z,100.00
2022-09-10T04:49:01.553Z,100.00
2022-09-10T04:50:08.869Z,100.00
2022-09-10T04:51:16.977Z,100.00
2022-09-10T04:52:33.066Z,100.00
2022-09-10T04:53:41.098Z,100.00
2022-09-10T04:54:48.320Z,100.00
2022-09-10T04:55:55.789Z,100.00
2022-09-10T04:57:03.061Z,100.00
2022-09-10T04:58:09.773Z,100.00
2022-09-10T04:59:16.967Z,100.00
2022-09-10T05:00:25.760Z,100.00
2022-09-10T05:01:32.394Z,100.00
2022-09-10T05:02:40.007Z,100.00
2022-09-10T05:03:47.184Z,100.00
2022-09-10T05:04:54.785Z,100.00
2022-09-10T05:06:02.367Z,100.00
2022-09-10T05:07:09.218Z,100.00
2022-09-10T05:08:16.078Z,100.00
2022-09-10T05:09:31.878Z,100.00
2022-09-10T05:10:42.013Z,100.00
2022-09-10T05:11:48.579Z,100.00
2022-09-10T05:12:55.926Z,100.00
2022-09-10T05:14:05.182Z,100.00
2022-09-10T05:15:11.510Z,100.00
2022-09-10T05:16:18.201Z,100.00
2022-09-10T05:17:25.524Z,100.00
2022-09-10T05:18:31.665Z,100.00
2022-09-10T05:19:39.316Z,100.00
2022-09-10T05:20:47.765Z,100.00
2022-09-10T05:21:54.696Z,100.00
2022-09-10T05:23:01.814Z,100.00
2022-09-10T05:24:08.664Z,100.00
2022-09-10T05:25:15.148Z,100.00
2022-09-10T05:26:22.285Z,100.00
2022-09-10T05:27:29.128Z,100.00
2022-09-10T05:28:35.686Z,100.00
2022-09-10T05:29:43.676Z,100.00
2022-09-10T05:30:51.854Z,100.00
2022-09-10T05:32:02.330Z,100.00
2022-09-10T05:33:09.794Z,100.00
2022-09-10T05:34:16.119Z,100.00
2022-09-10T05:35:22.923Z,100.00
2022-09-10T05:36:30.084Z,100.00
2022-09-10T05:37:36.429Z,100.00
2022-09-10T05:38:43.015Z,100.00
2022-09-10T05:39:49.718Z,100.00
2022-09-10T05:40:58.061Z,100.00
2022-09-10T05:42:06.790Z,100.00
2022-09-10T05:43:13.908Z,100.00
2022-09-10T05:44:21.407Z,100.00
2022-09-10T05:45:27.724Z,100.00
2022-09-10T05:46:35.589Z,100.00
2022-09-10T05:47:49.532Z,100.00
2022-09-10T05:49:00.938Z,100.00
2022-09-10T05:50:08.712Z,100.00
2022-09-10T05:51:15.833Z,100.00
2022-09-10T05:52:25.216Z,100.00
2022-09-10T05:53:32.817Z,100.00
2022-09-10T05:54:39.483Z,100.00
2022-09-10T05:55:47.404Z,100.00
2022-09-10T05:56:55.256Z,100.00
2022-09-10T05:58:03.768Z,100.00
2022-09-10T05:59:14.457Z,100.00
2022-09-10T06:00:27.000Z,100.00
2022-09-10T06:01:38.060Z,100.00
2022-09-10T06:02:46.022Z,100.00
2022-09-10T06:04:06.387Z,100.00
2022-09-10T06:05:13.943Z,100.00
2022-09-10T06:06:20.521Z,100.00
2022-09-10T06:07:33.904Z,100.00
2022-09-10T06:08:40.974Z,100.00
2022-09-10T06:10:01.202Z,100.00
2022-09-10T06:11:19.012Z,100.00
2022-09-10T06:12:29.912Z,100.00
2022-09-10T06:13:36.912Z,99.45
2022-09-10T06:14:43.631Z,99.59
2022-09-10T06:15:50.934Z,99.99
2022-09-10T06:16:57.705Z,100.00
2022-09-10T06:18:06.285Z,100.00
2022-09-10T06:19:12.400Z,100.00
2022-09-10T06:20:18.352Z,100.00
2022-09-10T06:21:28.257Z,100.00
2022-09-10T06:22:36.688Z,100.00
2022-09-10T06:23:44.541Z,100.00
2022-09-10T06:24:54.472Z,100.00
2022-09-10T06:26:08.651Z,100.00
2022-09-10T06:27:16.199Z,100.00
2022-09-10T06:28:22.881Z,100.00
2022-09-10T06:29:30.301Z,100.00
2022-09-10T06:30:38.704Z,100.00
2022-09-10T06:31:48.534Z,100.00
2022-09-10T06:32:55.659Z,100.00
2022-09-10T06:34:03.550Z,98.13
2022-09-10T06:35:11.156Z,95.13
2022-09-10T06:36:17.742Z,93.75
2022-09-10T06:37:25.576Z,94.74
2022-09-10T06:38:34.689Z,95.47
2022-09-10T06:39:41.846Z,93.11
2022-09-10T06:40:55.261Z,91.20
2022-09-10T06:42:02.575Z,92.05
2022-09-10T06:43:29.630Z,93.57
2022-09-10T06:45:00.645Z,95.77
2022-09-10T06:47:17.836Z,97.41
2022-09-10T06:49:32.008Z,99.72
2022-09-10T06:50:38.838Z,99.60
2022-09-10T06:51:46.377Z,99.74
2022-09-10T06:52:54.468Z,99.97
2022-09-10T06:54:03.799Z,100.00
2022-09-10T06:55:12.446Z,99.49
2022-09-10T06:56:27.078Z,98.44
2022-09-10T06:57:33.904Z,99.56
2022-09-10T06:58:41.556Z,99.96
2022-09-10T06:59:51.016Z,100.00
2022-09-10T07:00:58.521Z,100.00
2022-09-10T07:02:05.537Z,100.00
2022-09-10T07:03:17.830Z,100.00
2022-09-10T07:04:24.446Z,100.00
2022-09-10T07:05:33.413Z,100.00
2022-09-10T07:06:40.084Z,100.00
2022-09-10T07:07:52.777Z,100.00
2022-09-10T07:09:00.643Z,100.00
2022-09-10T07:10:12.303Z,100.00
2022-09-10T07:11:19.784Z,100.00
2022-09-10T07:12:27.064Z,100.00
2022-09-10T07:13:32.814Z,100.00
2022-09-10T07:14:42.672Z,100.00
2022-09-10T07:15:51.405Z,100.00
2022-09-10T07:16:59.163Z,100.00
2022-09-10T07:18:08.946Z,100.00
2022-09-10T07:19:16.078Z,100.00
2022-09-10T07:20:25.573Z,100.00
2022-09-10T07:21:32.016Z,100.00
2022-09-10T07:22:44.646Z,100.00
2022-09-10T07:24:03.093Z,100.00
2022-09-10T07:25:09.941Z,100.00
2022-09-10T07:26:34.598Z,100.00
2022-09-10T07:27:42.619Z,100.00
2022-09-10T07:28:48.586Z,100.00
2022-09-10T07:29:55.459Z,100.00
2022-09-10T07:31:02.670Z,100.00
2022-09-10T07:32:13.243Z,100.00
2022-09-10T07:33:20.531Z,100.00
2022-09-10T07:34:27.291Z,100.00
2022-09-10T07:35:37.333Z,100.00
2022-09-10T07:36:44.213Z,100.00
2022-09-10T07:37:50.647Z,100.00
2022-09-10T07:39:02.120Z,100.00
2022-09-10T07:40:11.278Z,100.00
2022-09-10T07:41:17.705Z,100.00
2022-09-10T07:42:25.859Z,100.00
2022-09-10T07:43:32.495Z,100.00
2022-09-10T07:44:39.155Z,100.00
2022-09-10T07:45:44.974Z,100.00
2022-09-10T07:46:50.921Z,100.00
2022-09-10T07:47:58.156Z,100.00
2022-09-10T07:49:04.307Z,100.00
2022-09-10T07:50:11.502Z,100.00
2022-09-10T07:51:20.126Z,100.00
2022-09-10T07:52:26.646Z,100.00
2022-09-10T07:53:33.627Z,100.00
2022-09-10T07:54:39.668Z,100.00
2022-09-10T07:55:46.101Z,100.00
2022-09-10T07:56:52.767Z,100.00
2022-09-10T07:58:00.237Z,100.00
2022-09-10T07:59:08.416Z,100.00
2022-09-10T08:00:20.262Z,100.00
2022-09-10T08:01:29.232Z,100.00
2022-09-10T08:02:35.451Z,100.00
2022-09-10T08:03:41.727Z,100.00
2022-09-10T08:04:48.908Z,100.00
2022-09-10T08:05:55.703Z,100.00
2022-09-10T08:07:01.798Z,100.00
2022-09-10T08:08:07.856Z,100.00
2022-09-10T08:09:15.410Z,100.00
2022-09-10T08:10:28.342Z,100.00
2022-09-10T08:11:35.351Z,100.00
2022-09-10T08:12:44.166Z,100.00
2022-09-10T08:13:52.432Z,100.00
2022-09-10T08:15:01.725Z,100.00
2022-09-10T08:16:13.108Z,100.00
2022-09-10T08:17:19.486Z,100.00
2022-09-10T08:18:25.748Z,100.00
2022-09-10T08:19:31.617Z,100.00
2022-09-10T08:20:38.200Z,100.00
2022-09-10T08:21:45.170Z,100.00
2022-09-10T08:22:52.069Z,100.00
2022-09-10T08:23:58.290Z,100.00
2022-09-10T08:25:04.872Z,100.00
2022-09-10T08:26:11.350Z,100.00
2022-09-10T08:27:17.390Z,100.00
2022-09-10T08:28:25.624Z,100.00
2022-09-10T08:29:32.635Z,100.00
2022-09-10T08:30:42.691Z,100.00
2022-09-10T08:31:49.832Z,100.00
2022-09-10T08:33:01.139Z,100.00
2022-09-10T08:34:09.134Z,100.00
2022-09-10T08:35:15.918Z,100.00
2022-09-10T08:36:23.003Z,100.00
2022-09-10T08:37:31.706Z,100.00
2022-09-10T08:38:40.954Z,100.00
2022-09-10T08:39:48.693Z,100.00
2022-09-10T08:40:57.884Z,100.00
2022-09-10T08:42:07.804Z,100.00
2022-09-10T08:43:14.597Z,100.00
2022-09-10T08:44:44.698Z,100.00
2022-09-10T08:45:51.754Z,100.00
2022-09-10T08:47:12.077Z,100.00
2022-09-10T08:48:19.200Z,100.00
2022-09-10T08:49:36.023Z,100.00
2022-09-10T08:51:11.227Z,100.00
2022-09-10T08:52:31.733Z,100.00
2022-09-10T08:53:57.557Z,100.00
2022-09-10T08:55:20.123Z,100.00
2022-09-10T08:56:27.479Z,100.00
2022-09-10T08:58:06.144Z,100.00
2022-09-10T08:59:34.835Z,100.00
2022-09-10T09:00:43.007Z,100.00
2022-09-10T09:02:37.883Z,100.00
2022-09-10T09:03:49.156Z,100.00
2022-09-10T09:05:06.377Z,100.00
2022-09-10T09:06:25.821Z,100.00
2022-09-10T09:07:40.972Z,100.00
2022-09-10T09:08:49.071Z,100.00
2022-09-10T09:10:00.123Z,100.00
2022-09-10T09:11:37.874Z,100.00
2022-09-10T09:12:53.137Z,100.00
2022-09-10T09:14:16.953Z,100.00
2022-09-10T09:15:53.333Z,100.00
2022-09-10T09:17:06.938Z,100.00
2022-09-10T09:18:33.820Z,100.00
2022-09-10T09:19:50.381Z,100.00
2022-09-10T09:20:58.503Z,100.00
2022-09-10T09:22:20.128Z,100.00
2022-09-10T09:24:12.132Z,100.00
2022-09-10T09:25:34.723Z,100.00
2022-09-10T09:26:41.442Z,100.00
2022-09-10T09:27:49.651Z,100.00
2022-09-10T09:28:59.249Z,100.00
2022-09-10T09:30:25.981Z,100.00
2022-09-10T09:31:38.735Z,100.00
2022-09-10T09:32:46.520Z,100.00
2022-09-10T09:33:54.936Z,100.00
2022-09-10T09:35:25.659Z,100.00
2022-09-10T09:36:37.230Z,100.00
2022-09-10T09:37:44.629Z,100.00
2022-09-10T09:38:51.505Z,100.00
2022-09-10T09:40:23.992Z,100.00
2022-09-10T09:41:43.462Z,100.00
2022-09-10T09:43:00.712Z,100.00
2022-09-10T09:44:41.949Z,100.00
2022-09-10T09:45:50.402Z,100.00
2022-09-10T09:46:57.551Z,100.00
2022-09-10T09:48:05.763Z,100.00
2022-09-10T09:49:17.175Z,100.00
2022-09-10T09:50:24.257Z,100.00
2022-09-10T09:51:37.009Z,100.00
2022-09-10T09:52:44.446Z,100.00
2022-09-10T09:54:18.456Z,100.00
2022-09-10T09:55:55.226Z,100.00
2022-09-10T09:57:02.609Z,100.00
2022-09-10T09:58:33.424Z,100.00
2022-09-10T09:59:40.402Z,100.00
2022-09-10T10:00:48.056Z,100.00
2022-09-10T10:01:55.955Z,100.00
2022-09-10T10:03:22.677Z,100.00
2022-09-10T10:04:32.352Z,100.00
2022-09-10T10:05:38.989Z,100.00
2022-09-10T10:06:48.850Z,100.00
2022-09-10T10:07:55.366Z,100.00
2022-09-10T10:09:04.558Z,100.00
2022-09-10T10:10:15.000Z,100.00
2022-09-10T10:11:22.511Z,100.00
2022-09-10T10:12:32.711Z,100.00
2022-09-10T10:13:46.015Z,100.00
2022-09-10T10:14:52.700Z,100.00
2022-09-10T10:16:00.127Z,100.00
2022-09-10T10:17:28.717Z,100.00
2022-09-10T10:18:35.131Z,100.00
2022-09-10T10:19:41.406Z,100.00
2022-09-10T10:20:47.245Z,100.00
2022-09-10T10:21:55.192Z,100.00
2022-09-10T10:23:02.318Z,100.00
2022-09-10T10:24:26.256Z,100.00
2022-09-10T10:25:39.529Z,100.00
2022-09-10T10:26:47.214Z,100.00
2022-09-10T10:27:55.842Z,100.00
2022-09-10T10:29:29.398Z,100.00
2022-09-10T10:30:35.978Z,100.00
2022-09-10T10:31:43.892Z,100.00
2022-09-10T10:32:54.598Z,100.00
2022-09-10T10:34:08.059Z,100.00
2022-09-10T10:35:33.410Z,100.00
2022-09-10T10:37:06.658Z,100.00
2022-09-10T10:38:32.201Z,100.00
2022-09-10T10:39:56.526Z,100.00
2022-09-10T10:41:26.918Z,100.00
2022-09-10T10:42:36.017Z,100.00
2022-09-10T10:44:06.552Z,100.00
2022-09-10T10:45:39.100Z,100.00
2022-09-10T10:46:49.251Z,100.00
2022-09-10T10:48:05.096Z,100.00
2022-09-10T10:49:23.920Z,100.00
2022-09-10T10:51:02.901Z,100.00
2022-09-10T10:52:16.565Z,100.00
2022-09-10T10:53:54.766Z,100.00
2022-09-10T10:55:23.934Z,100.00
2022-09-10T10:56:57.898Z,100.00
2022-09-10T10:58:32.929Z,100.00
2022-09-10T10:59:47.882Z,100.00
2022-09-10T11:01:08.389Z,100.00
2022-09-10T11:02:21.692Z,100.00
2022-09-10T11:03:55.073Z,100.00
2022-09-10T11:05:03.032Z,100.00
2022-09-10T11:06:29.492Z,100.00
2022-09-10T11:07:41.761Z,100.00
2022-09-10T11:09:19.792Z,100.00
2022-09-10T11:10:34.750Z,100.00
2022-09-10T11:12:02.836Z,100.00
2022-09-10T11:13:10.061Z,100.00
2022-09-10T11:14:31.537Z,100.00
2022-09-10T11:16:10.955Z,100.00
2022-09-10T11:17:35.560Z,100.00
2022-09-10T11:18:47.797Z,100.00
2022-09-10T11:20:29.954Z,100.00
2022-09-10T11:21:38.946Z,100.00
2022-09-10T11:22:49.769Z,100.00
2022-09-10T11:23:56.277Z,100.00
2022-09-10T11:25:17.236Z,100.00
2022-09-10T11:26:35.006Z,100.00
2022-09-10T11:27:46.744Z,100.00
2022-09-10T11:28:58.689Z,100.00
2022-09-10T11:30:11.588Z,100.00
2022-09-10T11:31:26.016Z,100.00
2022-09-10T11:32:45.303Z,100.00
2022-09-10T11:34:17.635Z,100.00
2022-09-10T11:35:28.560Z,100.00
2022-09-10T11:36:53.456Z,100.00
2022-09-10T11:38:08.823Z,100.00
2022-09-10T11:39:21.542Z,100.00
2022-09-10T11:40:49.179Z,100.00
2022-09-10T11:41:55.702Z,100.00
2022-09-10T11:43:12.966Z,100.00
2022-09-10T11:44:47.090Z,100.00
2022-09-10T11:45:58.017Z,100.00
2022-09-10T11:47:27.994Z,100.00
2022-09-10T11:48:43.756Z,100.00
2022-09-10T11:50:17.365Z,100.00
2022-09-10T11:51:28.819Z,100.00
2022-09-10T11:52:35.778Z,100.00
2022-09-10T11:53:41.886Z,100.00
2022-09-10T11:54:48.386Z,100.00
2022-09-10T11:56:09.650Z,100.00
2022-09-10T11:57:37.245Z,100.00
2022-09-10T11:58:49.878Z,100.00
2022-09-10T12:00:01.749Z,100.00
2022-09-10T12:01:51.432Z,100.00
2022-09-10T12:03:27.911Z,100.00
2022-09-10T12:05:04.019Z,100.00
2022-09-10T12:06:32.799Z,100.00
2022-09-10T12:07:47.860Z,100.00
2022-09-10T12:09:07.035Z,100.00
2022-09-10T12:10:35.413Z,100.00
2022-09-10T12:12:07.674Z,100.00
2022-09-10T12:13:16.440Z,100.00
2022-09-10T12:14:22.188Z,100.00
2022-09-10T12:15:32.019Z,100.00
2022-09-10T12:16:45.637Z,100.00
2022-09-10T12:17:59.403Z,100.00
2022-09-10T12:19:07.611Z,100.00
2022-09-10T12:20:21.190Z,100.00
2022-09-10T12:21:33.266Z,100.00
2022-09-10T12:22:40.318Z,100.00
2022-09-10T12:23:46.444Z,100.00
2022-09-10T12:24:55.139Z,100.00
2022-09-10T12:26:07.976Z,100.00
2022-09-10T12:27:16.028Z,100.00
2022-09-10T12:28:43.587Z,100.00
2022-09-10T12:29:50.200Z,100.00
2022-09-10T12:31:04.889Z,100.00
2022-09-10T12:32:17.274Z,100.00
2022-09-10T12:33:25.302Z,100.00
2022-09-10T12:34:31.943Z,100.00
2022-09-10T12:35:38.908Z,100.00
2022-09-10T12:36:45.502Z,100.00
2022-09-10T12:37:52.403Z,100.00
2022-09-10T12:39:19.001Z,100.00
2022-09-10T12:40:28.347Z,100.00
2022-09-10T12:41:37.780Z,100.00
2022-09-10T12:42:45.935Z,100.00
2022-09-10T12:43:55.716Z,100.00
2022-09-10T12:45:01.736Z,100.00
2022-09-10T12:46:10.908Z,100.00
2022-09-10T12:47:19.690Z,100.00
2022-09-10T12:48:27.160Z,100.00
2022-09-10T12:49:33.065Z,100.00
2022-09-10T12:50:40.947Z,100.00
2022-09-10T12:51:55.086Z,100.00
2022-09-10T12:53:14.234Z,100.00
2022-09-10T12:54:42.934Z,100.00
2022-09-10T12:56:06.494Z,100.00
2022-09-10T12:57:15.496Z,100.00
2022-09-10T12:58:37.877Z,100.00
2022-09-10T13:00:03.314Z,100.00
2022-09-10T13:01:18.566Z,100.00
2022-09-10T13:02:35.481Z,100.00
2022-09-10T13:03:54.977Z,100.00
2022-09-10T13:05:03.086Z,100.00
2022-09-10T13:06:10.378Z,100.00
2022-09-10T13:07:28.779Z,100.00
2022-09-10T13:08:36.491Z,100.00
2022-09-10T13:09:42.070Z,100.00
2022-09-10T13:10:50.586Z,100.00
2022-09-10T13:11:57.784Z,100.00
2022-09-10T13:13:05.545Z,100.00
2022-09-10T13:14:16.813Z,100.00
2022-09-10T13:15:27.373Z,100.00
2022-09-10T13:16:33.410Z,100.00
2022-09-10T13:17:52.477Z,100.00
2022-09-10T13:19:27.848Z,100.00
2022-09-10T13:20:35.314Z,100.00
2022-09-10T13:21:51.610Z,100.00
2022-09-10T13:23:04.974Z,100.00
2022-09-10T13:24:36.530Z,100.00
2022-09-10T13:25:43.850Z,100.00
2022-09-10T13:26:53.129Z,100.00
2022-09-10T13:28:00.041Z,100.00
2022-09-10T13:29:33.603Z,100.00
2022-09-10T13:30:41.146Z,100.00
2022-09-10T13:31:48.260Z,100.00
2022-09-10T13:32:57.257Z,100.00
2022-09-10T13:34:15.863Z,100.00
2022-09-10T13:35:59.175Z,100.00
2022-09-10T13:37:22.447Z,100.00
2022-09-10T13:38:50.187Z,100.00
2022-09-10T13:40:13.873Z,100.00
2022-09-10T13:42:01.036Z,100.00
2022-09-10T13:43:25.547Z,100.00
2022-09-10T13:45:01.530Z,100.00
2022-09-10T13:46:20.793Z,100.00
2022-09-10T13:47:37.129Z,100.00
2022-09-10T13:48:52.889Z,100.00
2022-09-10T13:50:03.778Z,100.00
2022-09-10T13:51:25.156Z,100.00
2022-09-10T13:52:33.607Z,100.00
2022-09-10T13:53:42.065Z,100.00
2022-09-10T13:54:53.071Z,100.00
2022-09-10T13:56:18.786Z,100.00
2022-09-10T13:57:42.139Z,100.00
2022-09-10T13:58:55.274Z,100.00
2022-09-10T14:00:16.720Z,100.00
2022-09-10T14:01:22.676Z,100.00
2022-09-10T14:03:04.463Z,100.00
2022-09-10T14:04:41.955Z,100.00
2022-09-10T14:05:53.468Z,100.00
2022-09-10T14:07:04.007Z,100.00
2022-09-10T14:08:31.275Z,100.00
2022-09-10T14:09:38.431Z,100.00
2022-09-10T14:11:15.054Z,100.00
2022-09-10T14:12:22.196Z,100.00
2022-09-10T14:13:35.639Z,100.00
2022-09-10T14:14:49.316Z,100.00
2022-09-10T14:15:55.547Z,100.00
2022-09-10T14:17:22.925Z,100.00
2022-09-10T14:18:34.187Z,100.00
2022-09-10T14:19:49.983Z,100.00
2022-09-10T14:20:55.762Z,100.00
2022-09-10T14:22:02.527Z,100.00
2022-09-10T14:23:14.110Z,100.00
2022-09-10T14:24:34.731Z,100.00
2022-09-10T14:25:41.153Z,100.00
2022-09-10T14:27:05.204Z,100.00
2022-09-10T14:28:28.872Z,100.00
2022-09-10T14:29:35.030Z,100.00
2022-09-10T14:30:41.333Z,100.00
2022-09-10T14:31:47.465Z,100.00
2022-09-10T14:32:53.883Z,100.00
2022-09-10T14:34:00.188Z,100.00
2022-09-10T14:35:41.356Z,100.00
2022-09-10T14:36:47.350Z,100.00
2022-09-10T14:37:53.205Z,100.00
2022-09-10T14:39:21.388Z,100.00
2022-09-10T14:40:28.767Z,98.54
2022-09-10T14:41:35.495Z,98.67
2022-09-10T14:42:41.521Z,97.98
2022-09-10T14:43:47.361Z,96.91
2022-09-10T14:44:53.363Z,96.60
2022-09-10T14:45:59.457Z,94.74
2022-09-10T14:47:11.601Z,93.92
2022-09-10T14:48:39.364Z,94.35
2022-09-10T14:49:47.965Z,95.14
2022-09-10T14:51:03.631Z,95.24
2022-09-10T14:52:09.833Z,93.80
2022-09-10T14:53:16.056Z,92.65
2022-09-10T14:54:21.765Z,92.69
2022-09-10T14:55:28.917Z,91.62
2022-09-10T14:56:38.664Z,91.75
2022-09-10T14:57:45.656Z,92.26
2022-09-10T14:59:15.436Z,92.16
2022-09-10T15:00:21.169Z,92.32
2022-09-10T15:01:27.064Z,93.06
2022-09-10T15:02:33.401Z,92.89
2022-09-10T15:03:41.442Z,92.62
2022-09-10T15:04:47.479Z,92.63
2022-09-10T15:05:53.277Z,92.00
2022-09-10T15:07:00.504Z,92.33
2022-09-10T15:08:06.793Z,92.63
2022-09-10T15:09:18.858Z,90.97
2022-09-10T15:10:26.086Z,89.58
2022-09-10T15:11:32.123Z,89.23
2022-09-10T15:12:37.805Z,88.99